Time;durP1;ratioP1;P1;durP2;ratioP2;P2;SDS_P1;SDS_P2;PMS_P1;PMS_P2;Temp;Humidity;BMP_temperature;BMP_pressure;BME280_temperature;BME280_humidity;BME280_pressure;Samples;Min_cycle;Max_cycle;Signal;HPM_P1;HPM_P2
2022/10/06 00:01:02;;;;;;;3.53;3.20;;;23.40;52.20;;;;;;5003232;28;20443;-79
2022/10/06 00:03:30;;;;;;;2.87;2.67;;;23.40;52.20;;;;;;5004868;28;20452;-79
2022/10/06 00:06:00;;;;;;;3.90;2.90;;;23.40;52.30;;;;;;4989495;28;20428;-79
2022/10/06 00:08:28;;;;;;;3.30;3.00;;;23.40;52.40;;;;;;4989638;28;20431;-79
2022/10/06 00:10:57;;;;;;;2.97;2.77;;;23.40;52.30;;;;;;5004028;28;20476;-79
2022/10/06 00:13:26;;;;;;;3.83;3.10;;;23.40;52.20;;;;;;5006610;28;20507;-80
2022/10/06 00:15:54;;;;;;;2.83;2.63;;;23.40;52.40;;;;;;4992417;28;20413;-80
2022/10/06 00:18:22;;;;;;;3.00;2.80;;;23.30;52.30;;;;;;4999302;28;20460;-80
2022/10/06 00:20:55;;;;;;;3.10;2.90;;;23.30;52.40;;;;;;5001908;28;20473;-80
2022/10/06 00:23:23;;;;;;;3.30;3.10;;;23.30;52.40;;;;;;5004444;28;20447;-78
2022/10/06 00:25:51;;;;;;;2.90;2.80;;;23.30;52.40;;;;;;4998054;28;20434;-79
2022/10/06 00:28:18;;;;;;;3.07;2.83;;;23.30;52.40;;;;;;5006839;28;20442;-80
2022/10/06 00:30:49;;;;;;;2.80;2.60;;;23.30;52.40;;;;;;5004259;28;20456;-79
2022/10/06 00:33:18;;;;;;;3.63;2.53;;;23.30;52.50;;;;;;5006710;28;20918;-79
2022/10/06 00:35:46;;;;;;;2.67;2.47;;;23.30;52.60;;;;;;5010037;28;20424;-80
2022/10/06 00:38:15;;;;;;;3.63;3.07;;;23.20;52.40;;;;;;4996299;28;20417;-80
2022/10/06 00:40:44;;;;;;;2.70;2.60;;;23.20;52.60;;;;;;4997711;28;20467;-80
2022/10/06 00:43:35;;;;;;;3.10;2.90;;;23.20;52.50;;;;;;5010185;28;20453;-79
2022/10/06 00:46:06;;;;;;;2.30;2.20;;;23.20;52.40;;;;;;5002014;28;20458;-79
2022/10/06 00:48:34;;;;;;;4.60;3.20;;;23.20;52.50;;;;;;4994352;28;20432;-79
2022/10/06 00:51:02;;;;;;;2.70;2.60;;;23.10;52.50;;;;;;5008488;28;20504;-79
2022/10/06 00:53:30;;;;;;;3.00;2.80;;;23.10;52.60;;;;;;4995247;28;20462;-79
2022/10/06 00:55:59;;;;;;;2.90;2.67;;;23.10;52.40;;;;;;5005949;28;20528;-79
2022/10/06 00:58:27;;;;;;;2.37;2.20;;;23.10;52.50;;;;;;5003182;28;20432;-78
2022/10/06 01:00:55;;;;;;;2.77;2.50;;;23.10;52.60;;;;;;5006816;28;20454;-80
2022/10/06 01:03:27;;;;;;;2.93;2.23;;;23.10;52.70;;;;;;5004067;28;20461;-79
2022/10/06 01:05:55;;;;;;;2.57;2.47;;;23.10;52.60;;;;;;5005432;28;20465;-79
2022/10/06 01:08:23;;;;;;;2.87;2.60;;;23.00;52.50;;;;;;5002800;28;20471;-80
2022/10/06 01:10:51;;;;;;;5.20;2.53;;;23.00;52.60;;;;;;5001436;28;20484;-80
2022/10/06 01:13:19;;;;;;;2.43;2.23;;;23.00;52.50;;;;;;5006820;28;20457;-80
2022/10/06 01:15:49;;;;;;;3.00;2.30;;;23.00;52.50;;;;;;5006915;28;20437;-80
2022/10/06 01:18:17;;;;;;;3.27;2.80;;;22.90;52.50;;;;;;5000669;28;20452;-78
2022/10/06 01:20:50;;;;;;;2.53;2.40;;;22.90;52.50;;;;;;4996545;28;20469;-80
2022/10/06 01:23:20;;;;;;;2.70;2.50;;;22.90;52.60;;;;;;5008140;28;20426;-79
2022/10/06 01:25:48;;;;;;;2.60;2.40;;;22.90;52.50;;;;;;5002377;28;20479;-80
2022/10/06 01:28:16;;;;;;;2.80;2.60;;;22.90;52.60;;;;;;4995997;28;20454;-79
2022/10/06 01:30:49;;;;;;;2.40;2.20;;;22.90;52.70;;;;;;4997826;28;20491;-79
2022/10/06 01:33:17;;;;;;;2.33;1.90;;;22.90;52.60;;;;;;4997351;28;20428;-79
2022/10/06 01:35:46;;;;;;;2.53;2.33;;;22.80;52.50;;;;;;5005556;28;20455;-78
2022/10/06 01:38:13;;;;;;;2.77;2.47;;;22.80;52.60;;;;;;5000801;28;20428;-79
2022/10/06 01:40:43;;;;;;;2.23;1.83;;;22.80;52.70;;;;;;5000065;28;20452;-79
2022/10/06 01:43:11;;;;;;;2.20;2.10;;;22.80;52.70;;;;;;4994002;28;20460;-79
2022/10/06 01:45:39;;;;;;;2.60;2.43;;;22.70;52.60;;;;;;5001087;28;20439;-79
2022/10/06 01:48:07;;;;;;;4.00;2.30;;;22.70;52.50;;;;;;4993876;28;20460;-79
2022/10/06 01:50:35;;;;;;;2.40;2.30;;;22.70;52.60;;;;;;5001388;28;20540;-79
2022/10/06 01:53:03;;;;;;;4.20;2.40;;;22.70;52.60;;;;;;4998939;28;20457;-79
2022/10/06 01:55:31;;;;;;;3.40;2.60;;;22.70;52.60;;;;;;5005834;28;20454;-79
2022/10/06 01:58:01;;;;;;;2.23;2.13;;;22.70;52.60;;;;;;4999519;28;20458;-79
2022/10/06 02:00:29;;;;;;;2.60;2.40;;;22.60;52.50;;;;;;5005383;28;20467;-79
2022/10/06 02:02:57;;;;;;;2.00;1.83;;;22.60;52.70;;;;;;5009998;28;20420;-79
2022/10/06 02:05:25;;;;;;;3.07;2.87;;;22.70;52.50;;;;;;4994086;28;20440;-79
2022/10/06 02:07:53;;;;;;;2.50;2.30;;;22.60;52.60;;;;;;5008097;28;20456;-80
2022/10/06 02:10:21;;;;;;;2.03;1.93;;;22.60;52.60;;;;;;5006905;28;20595;-80
2022/10/06 02:12:50;;;;;;;3.97;2.70;;;22.60;52.70;;;;;;4999536;28;20456;-80
2022/10/06 02:15:20;;;;;;;2.90;2.60;;;22.60;52.80;;;;;;5006045;28;20428;-80
2022/10/06 02:17:48;;;;;;;2.70;2.50;;;22.60;52.70;;;;;;5001581;28;20420;-80
2022/10/06 02:20:16;;;;;;;3.50;2.40;;;22.50;52.60;;;;;;4991919;28;20453;-80
2022/10/06 02:22:44;;;;;;;2.97;2.60;;;22.50;52.70;;;;;;4997476;28;20428;-80
2022/10/06 02:25:12;;;;;;;2.43;2.07;;;22.50;52.70;;;;;;4996074;28;20451;-80
2022/10/06 02:27:40;;;;;;;2.40;2.20;;;22.50;52.70;;;;;;5001132;28;20450;-80
2022/10/06 02:30:10;;;;;;;3.57;2.50;;;22.50;52.70;;;;;;5006959;28;20473;-80
2022/10/06 02:32:41;;;;;;;2.30;2.13;;;22.50;52.60;;;;;;5008361;28;20445;-80
2022/10/06 02:35:10;;;;;;;3.50;2.20;;;22.40;52.60;;;;;;4997606;28;20453;-79
2022/10/06 02:37:38;;;;;;;3.13;2.30;;;22.40;52.60;;;;;;5007735;28;20449;-80
2022/10/06 02:40:08;;;;;;;2.20;2.10;;;22.30;52.70;;;;;;5005573;28;20461;-80
2022/10/06 02:42:36;;;;;;;2.43;2.23;;;22.40;52.90;;;;;;5002569;28;20478;-80
2022/10/06 02:45:06;;;;;;;2.43;2.23;;;22.40;52.80;;;;;;5002254;28;20532;-80
2022/10/06 02:47:34;;;;;;;2.60;2.20;;;22.30;52.80;;;;;;5006274;28;20430;-80
2022/10/06 02:50:05;;;;;;;2.90;2.70;;;22.30;52.80;;;;;;4995252;28;20457;-80
2022/10/06 02:52:34;;;;;;;2.73;2.50;;;22.40;52.80;;;;;;4993015;28;20451;-80
2022/10/06 02:55:02;;;;;;;2.30;2.20;;;22.30;52.60;;;;;;5009490;28;20467;-80
2022/10/06 02:57:30;;;;;;;2.17;2.00;;;22.30;52.80;;;;;;5006001;28;20435;-80
2022/10/06 02:59:59;;;;;;;2.67;2.13;;;22.30;52.80;;;;;;5004020;28;20471;-81
2022/10/06 03:02:29;;;;;;;2.77;1.83;;;22.30;52.80;;;;;;5003372;28;20434;-80
2022/10/06 03:04:57;;;;;;;3.73;2.27;;;22.30;52.90;;;;;;5008588;28;20464;-80
2022/10/06 03:07:27;;;;;;;4.03;2.50;;;22.30;52.90;;;;;;5007821;28;20437;-81
2022/10/06 03:09:55;;;;;;;3.37;2.13;;;22.30;52.80;;;;;;4998844;28;20458;-78
2022/10/06 03:12:23;;;;;;;2.40;2.30;;;22.20;52.70;;;;;;4999270;28;20477;-79
2022/10/06 03:14:51;;;;;;;3.93;2.60;;;22.20;52.80;;;;;;4996229;28;20469;-79
2022/10/06 03:17:19;;;;;;;3.53;2.07;;;22.20;52.90;;;;;;4997281;28;20524;-79
2022/10/06 03:19:47;;;;;;;2.80;2.60;;;22.20;52.90;;;;;;5002480;28;20467;-80
2022/10/06 03:22:15;;;;;;;2.80;2.50;;;22.20;53.00;;;;;;5003450;28;20446;-79
2022/10/06 03:24:44;;;;;;;4.37;2.20;;;22.10;52.80;;;;;;4996688;28;20465;-79
2022/10/06 03:27:12;;;;;;;2.33;2.23;;;22.10;52.90;;;;;;5006669;28;20424;-79
2022/10/06 03:29:40;;;;;;;2.50;2.30;;;22.10;52.80;;;;;;5005941;28;20436;-80
2022/10/06 03:32:08;;;;;;;2.30;2.10;;;22.10;52.90;;;;;;5009496;28;20537;-80
2022/10/06 03:34:36;;;;;;;2.03;1.93;;;22.10;52.90;;;;;;5003417;28;20454;-79
2022/10/06 03:37:05;;;;;;;2.53;2.03;;;22.10;52.90;;;;;;4995423;28;20476;-80
2022/10/06 03:39:33;;;;;;;3.10;2.20;;;22.10;52.90;;;;;;5009064;28;20463;-80
2022/10/06 03:42:02;;;;;;;2.57;2.37;;;22.00;52.90;;;;;;5004214;28;20986;-79
2022/10/06 03:44:33;;;;;;;3.07;2.60;;;22.00;52.80;;;;;;5005707;28;20449;-79
2022/10/06 03:47:01;;;;;;;2.13;1.93;;;22.00;52.60;;;;;;4994291;28;21005;-80
2022/10/06 03:49:29;;;;;;;3.23;2.30;;;22.00;52.90;;;;;;5008628;28;20447;-80
2022/10/06 03:51:57;;;;;;;2.60;2.40;;;22.00;52.90;;;;;;5009045;28;20448;-80
2022/10/06 03:54:26;;;;;;;2.40;2.20;;;22.00;52.80;;;;;;5000869;28;20510;-80
2022/10/06 03:56:54;;;;;;;3.27;2.50;;;22.00;52.80;;;;;;4992839;28;20454;-79
2022/10/06 03:59:24;;;;;;;2.83;2.53;;;22.00;52.80;;;;;;5001466;28;20437;-79
2022/10/06 04:01:54;;;;;;;3.53;2.53;;;22.00;52.80;;;;;;5002881;28;20457;-80
2022/10/06 04:04:23;;;;;;;2.77;2.50;;;21.90;52.80;;;;;;5004958;28;20505;-80
2022/10/06 04:06:51;;;;;;;2.67;2.17;;;21.90;52.90;;;;;;4997235;28;20427;-80
2022/10/06 04:09:19;;;;;;;2.50;2.40;;;21.90;52.90;;;;;;5007928;28;20445;-80
2022/10/06 04:11:47;;;;;;;2.63;2.43;;;21.90;52.80;;;;;;4998814;28;20475;-80
2022/10/06 04:14:16;;;;;;;2.43;2.23;;;21.90;52.80;;;;;;4999387;28;20442;-80
2022/10/06 04:16:46;;;;;;;2.40;2.20;;;21.90;52.80;;;;;;5002341;28;20460;-80
2022/10/06 04:19:15;;;;;;;2.47;2.27;;;21.80;52.70;;;;;;5003688;28;20453;-81
2022/10/06 04:21:43;;;;;;;2.90;2.20;;;21.80;52.80;;;;;;5007808;28;20438;-80
2022/10/06 04:24:11;;;;;;;5.67;2.60;;;21.80;52.80;;;;;;5009513;28;20447;-80
2022/10/06 04:26:41;;;;;;;2.83;2.40;;;21.80;52.80;;;;;;5006915;28;20456;-80
2022/10/06 04:29:09;;;;;;;2.93;2.40;;;21.80;52.70;;;;;;5009640;28;20438;-80
2022/10/06 04:31:37;;;;;;;2.60;2.40;;;21.80;52.80;;;;;;4994613;28;20484;-80
2022/10/06 04:34:07;;;;;;;2.57;2.20;;;21.80;52.70;;;;;;5011295;28;20487;-80
2022/10/06 04:36:37;;;;;;;2.20;2.00;;;21.80;52.80;;;;;;4993975;28;20443;-80
2022/10/06 04:39:05;;;;;;;2.30;2.00;;;21.80;52.80;;;;;;5002209;28;20487;-81
2022/10/06 04:41:34;;;;;;;2.40;2.20;;;21.80;52.70;;;;;;4989681;28;20484;-81
2022/10/06 04:44:03;;;;;;;4.53;2.67;;;21.80;52.70;;;;;;5000914;28;20445;-80
2022/10/06 04:46:31;;;;;;;4.20;2.33;;;21.70;52.60;;;;;;4983402;28;20442;-80
2022/10/06 04:49:17;;;;;;;2.83;2.23;;;21.70;52.70;;;;;;5002860;28;20453;-80
2022/10/06 04:51:48;;;;;;;2.53;2.33;;;21.70;52.70;;;;;;5000718;28;20455;-81
2022/10/06 04:54:16;;;;;;;3.50;2.50;;;21.70;52.70;;;;;;4997346;28;20439;-81
2022/10/06 04:56:45;;;;;;;3.17;2.27;;;21.60;52.70;;;;;;4998060;28;20436;-81
2022/10/06 04:59:13;;;;;;;3.90;2.40;;;21.70;52.80;;;;;;4990525;28;20485;-81
2022/10/06 05:01:42;;;;;;;3.83;1.90;;;21.60;52.80;;;;;;5001923;28;20464;-81
2022/10/06 05:04:09;;;;;;;3.10;2.40;;;21.60;52.70;;;;;;5002305;28;20440;-81
2022/10/06 05:06:40;;;;;;;4.70;2.43;;;21.60;52.70;;;;;;5004111;28;20464;-80
2022/10/06 05:09:09;;;;;;;5.03;2.53;;;21.60;52.60;;;;;;4986507;28;20458;-82
2022/10/06 05:11:38;;;;;;;4.03;2.20;;;21.60;52.80;;;;;;5000822;28;20477;-82
2022/10/06 05:14:05;;;;;;;2.57;2.37;;;21.60;52.80;;;;;;5002700;28;20449;-81
2022/10/06 05:16:36;;;;;;;2.40;2.20;;;21.60;52.80;;;;;;4983720;28;20509;-80
2022/10/06 05:19:04;;;;;;;3.03;2.30;;;21.50;52.80;;;;;;4987563;28;20445;-81
2022/10/06 05:21:32;;;;;;;5.03;2.00;;;21.60;52.80;;;;;;5000244;28;20563;-81
2022/10/06 05:24:02;;;;;;;2.30;2.07;;;21.50;52.80;;;;;;4990964;28;20472;-80
2022/10/06 05:26:31;;;;;;;2.53;2.33;;;21.50;52.90;;;;;;4986197;28;20452;-80
2022/10/06 05:29:00;;;;;;;2.53;2.33;;;21.50;52.70;;;;;;4998187;28;20457;-79
2022/10/06 05:31:28;;;;;;;3.03;2.20;;;21.50;52.80;;;;;;4996263;28;20475;-80
2022/10/06 05:33:57;;;;;;;3.37;2.13;;;21.50;52.70;;;;;;4998190;28;20459;-79
2022/10/06 05:36:25;;;;;;;2.57;2.37;;;21.50;52.80;;;;;;4995924;28;20459;-79
2022/10/06 05:38:53;;;;;;;2.60;1.90;;;21.40;52.90;;;;;;4998396;28;20447;-80
2022/10/06 05:41:23;;;;;;;2.60;2.40;;;21.40;52.70;;;;;;4992695;28;20479;-80
2022/10/06 05:43:51;;;;;;;2.17;1.87;;;21.40;52.80;;;;;;4993224;28;20424;-78
2022/10/06 05:46:22;;;;;;;2.53;2.10;;;21.40;52.90;;;;;;4992623;28;20464;-78
2022/10/06 05:48:51;;;;;;;2.60;2.13;;;21.40;53.50;;;;;;4993196;28;20460;-78
2022/10/06 05:51:19;;;;;;;2.90;2.60;;;21.40;52.90;;;;;;4992111;28;20448;-79
2022/10/06 05:53:48;;;;;;;5.20;2.30;;;21.40;53.00;;;;;;4988222;28;20444;-78
2022/10/06 05:56:18;;;;;;;2.30;2.10;;;21.40;52.90;;;;;;4990201;28;20457;-79
2022/10/06 05:58:47;;;;;;;2.27;2.03;;;21.40;52.90;;;;;;4988991;28;20452;-77
2022/10/06 06:01:17;;;;;;;3.90;2.70;;;21.40;52.90;;;;;;4992017;28;20483;-78
2022/10/06 06:03:47;;;;;;;2.30;2.10;;;21.40;52.80;;;;;;4993449;28;20440;-79
2022/10/06 06:06:17;;;;;;;4.10;2.20;;;21.40;52.90;;;;;;4992203;28;20458;-78
2022/10/06 06:08:45;;;;;;;2.40;2.27;;;21.30;52.90;;;;;;4994021;28;20433;-78
2022/10/06 06:11:13;;;;;;;2.67;2.33;;;21.30;52.90;;;;;;4991911;28;20473;-78
2022/10/06 06:13:41;;;;;;;2.87;1.93;;;21.30;53.00;;;;;;4991384;28;20488;-78
2022/10/06 06:16:12;;;;;;;2.10;1.90;;;21.30;52.80;;;;;;4991254;28;20472;-79
2022/10/06 06:18:40;;;;;;;4.37;2.03;;;21.40;52.90;;;;;;4991336;28;20437;-79
2022/10/06 06:21:09;;;;;;;9.10;2.57;;;21.30;52.90;;;;;;4977816;28;20451;-79
2022/10/06 06:23:38;;;;;;;2.80;2.20;;;21.30;52.90;;;;;;4974769;28;20446;-78
2022/10/06 06:26:07;;;;;;;2.47;2.27;;;21.30;52.90;;;;;;4974306;28;20454;-79
2022/10/06 06:28:36;;;;;;;2.83;2.23;;;21.40;53.00;;;;;;4974144;28;20458;-78
2022/10/06 06:31:05;;;;;;;2.70;2.50;;;21.40;53.00;;;;;;4992192;28;20531;-78
2022/10/06 06:33:36;;;;;;;4.40;2.37;;;21.40;52.70;;;;;;5012779;28;20475;-79
2022/10/06 06:36:11;;;;;;;2.70;2.20;;;21.40;52.90;;;;;;5001734;28;20937;-78
2022/10/06 06:38:39;;;;;;;2.50;2.30;;;21.40;53.50;;;;;;4973897;28;20449;-79
2022/10/06 06:41:13;;;;;;;2.60;2.40;;;21.40;52.80;;;;;;4979973;28;20476;-78
2022/10/06 06:43:41;;;;;;;7.80;2.57;;;21.40;52.60;;;;;;4983092;28;20457;-78
2022/10/06 06:46:09;;;;;;;2.30;2.10;;;21.40;52.80;;;;;;4988938;28;20464;-78
2022/10/06 06:48:39;;;;;;;3.10;2.60;;;21.40;52.70;;;;;;4989253;28;20438;-78
2022/10/06 06:51:07;;;;;;;3.13;2.77;;;21.40;52.80;;;;;;4985753;28;20478;-78
2022/10/06 06:53:35;;;;;;;3.57;2.30;;;21.40;52.80;;;;;;4986958;28;21045;-78
2022/10/06 06:56:03;;;;;;;2.73;2.00;;;21.40;52.70;;;;;;4992823;28;20456;-78
2022/10/06 06:58:32;;;;;;;2.47;2.20;;;21.40;52.60;;;;;;4989266;28;20469;-79
2022/10/06 07:01:07;;;;;;;2.40;2.20;;;21.40;52.60;;;;;;4987562;28;20512;-79
2022/10/06 07:03:35;;;;;;;3.53;2.10;;;21.50;52.50;;;;;;4991817;28;20457;-79
2022/10/06 07:06:26;;;;;;;4.47;2.30;;;21.40;52.40;;;;;;4986291;28;20499;-79
2022/10/06 07:08:55;;;;;;;3.70;2.30;;;21.40;52.30;;;;;;4990316;28;20434;-79
2022/10/06 07:11:24;;;;;;;4.23;2.33;;;21.40;52.30;;;;;;4990276;28;20482;-79
2022/10/06 07:13:54;;;;;;;4.10;2.10;;;21.40;52.20;;;;;;4998019;28;20481;-79
2022/10/06 07:27:28;;;;;;;6.70;2.60;;;21.40;51.80;;;;;;5001999;28;20449;-80
2022/10/06 07:29:56;;;;;;;3.90;1.90;;;21.40;51.70;;;;;;5001210;28;20457;-79
2022/10/06 07:32:25;;;;;;;3.23;2.03;;;21.40;51.50;;;;;;4998065;28;20467;-80
2022/10/06 07:34:53;;;;;;;2.40;1.90;;;21.40;51.50;;;;;;4999651;28;20476;-79
2022/10/06 07:37:22;;;;;;;6.37;2.43;;;21.50;51.40;;;;;;5003479;28;20440;-78
2022/10/06 07:39:51;;;;;;;3.97;1.90;;;21.50;51.30;;;;;;4989766;28;20426;-79
2022/10/06 07:42:19;;;;;;;2.37;1.90;;;21.50;51.20;;;;;;5003048;28;20471;-80
2022/10/06 07:45:37;;;;;;;1.80;1.70;;;21.60;51.20;;;;;;5011372;28;20428;-80
2022/10/06 07:47:36;;;;;;;6.57;2.10;;;21.60;51.10;;;;;;5009932;28;20441;-80
2022/10/06 07:50:05;;;;;;;7.13;2.10;;;21.60;51.30;;;;;;5008466;28;20451;-79
2022/10/06 07:52:37;;;;;;;5.50;2.20;;;21.60;51.40;;;;;;5009507;28;20469;-80
2022/10/06 07:55:07;;;;;;;4.43;2.20;;;21.60;51.10;;;;;;5011482;28;20509;-80
2022/10/06 07:57:34;;;;;;;4.90;2.03;;;21.70;51.50;;;;;;5013785;28;20442;-79
2022/10/06 08:00:04;;;;;;;7.70;2.17;;;21.80;51.40;;;;;;5015999;28;20488;-80
2022/10/06 08:02:32;;;;;;;2.30;1.90;;;21.90;51.30;;;;;;5014919;28;20437;-80
2022/10/06 08:05:03;;;;;;;3.80;2.10;;;22.00;51.30;;;;;;5015749;28;20497;-80
2022/10/06 08:07:31;;;;;;;4.17;2.20;;;22.20;51.60;;;;;;5016127;28;20464;-80
2022/10/06 08:10:00;;;;;;;6.30;2.33;;;22.40;51.20;;;;;;5016042;28;20430;-80
2022/10/06 08:12:36;;;;;;;3.63;1.90;;;22.60;51.40;;;;;;5016027;28;20492;-80
2022/10/06 08:15:05;;;;;;;3.13;1.90;;;22.80;51.30;;;;;;5016321;28;20480;-80
2022/10/06 08:17:35;;;;;;;3.10;2.37;;;23.00;51.30;;;;;;5013262;28;20437;-81
2022/10/06 08:20:03;;;;;;;7.50;2.47;;;23.20;51.20;;;;;;5014546;28;20424;-81
2022/10/06 08:22:30;;;;;;;5.97;2.03;;;23.40;51.20;;;;;;5016403;28;20645;-82
2022/10/06 08:24:59;;;;;;;3.50;2.00;;;23.70;51.30;;;;;;5016642;28;20588;-80
2022/10/06 08:27:34;;;;;;;7.53;2.53;;;23.90;51.20;;;;;;5016169;28;20441;-82
2022/10/06 08:30:02;;;;;;;3.77;1.70;;;24.10;51.10;;;;;;5016579;28;20434;-81
2022/10/06 08:32:30;;;;;;;3.67;1.80;;;24.30;51.10;;;;;;5014918;28;20464;-80
2022/10/06 08:34:59;;;;;;;2.37;1.80;;;24.40;51.00;;;;;;5016601;28;20475;-81
2022/10/06 08:37:26;;;;;;;5.33;1.80;;;24.70;51.10;;;;;;5017232;28;20412;-81
2022/10/06 08:39:55;;;;;;;6.63;1.97;;;24.80;50.70;;;;;;5016177;28;20441;-82
2022/10/06 08:42:28;;;;;;;5.03;2.10;;;25.00;50.70;;;;;;5016710;28;20467;-81
2022/10/06 08:44:58;;;;;;;2.40;1.80;;;25.20;50.80;;;;;;5017393;28;20437;-81
2022/10/06 08:47:27;;;;;;;3.17;1.97;;;25.40;50.50;;;;;;5017168;28;20429;-81
2022/10/06 08:49:55;;;;;;;3.10;1.83;;;25.60;50.40;;;;;;5016848;28;20868;-81
2022/10/06 08:52:34;;;;;;;4.40;1.60;;;25.70;50.20;;;;;;5016689;28;20439;-81
2022/10/06 08:55:07;;;;;;;4.10;1.60;;;25.90;50.10;;;;;;5017397;28;20451;-82
2022/10/06 08:57:38;;;;;;;6.00;1.80;;;26.20;50.10;;;;;;5017511;28;20392;-81
2022/10/06 09:00:10;;;;;;;3.80;1.73;;;26.40;49.90;;;;;;5016873;28;20435;-81
2022/10/06 09:02:40;;;;;;;3.40;1.50;;;26.60;49.70;;;;;;5016525;28;20445;-83
2022/10/06 09:05:09;;;;;;;4.13;2.17;;;26.80;49.50;;;;;;5016332;28;20509;-81
2022/10/06 09:07:39;;;;;;;2.70;2.10;;;27.00;49.30;;;;;;5015532;28;20426;-81
2022/10/06 09:10:25;;;;;;;3.77;2.00;;;27.20;49.10;;;;;;5015707;28;20448;-81
2022/10/06 09:12:57;;;;;;;2.53;1.77;;;27.50;49.00;;;;;;5015483;28;20435;-81
2022/10/06 09:15:30;;;;;;;5.77;1.90;;;27.70;48.40;;;;;;5015591;28;20513;-81
2022/10/06 09:18:01;;;;;;;3.90;1.90;;;27.80;48.30;;;;;;5015644;28;20446;-81
2022/10/06 09:20:31;;;;;;;2.27;1.53;;;27.90;48.20;;;;;;5015145;28;20419;-81
2022/10/06 09:23:00;;;;;;;2.00;1.70;;;28.00;47.90;;;;;;5015274;28;20419;-82
2022/10/06 09:25:28;;;;;;;4.47;1.70;;;28.10;47.50;;;;;;5015292;28;20415;-80
2022/10/06 09:27:58;;;;;;;3.63;1.90;;;28.30;47.70;;;;;;5014721;28;20431;-81
2022/10/06 09:30:26;;;;;;;5.70;2.30;;;28.40;47.40;;;;;;5014762;28;20445;-81
2022/10/06 09:32:56;;;;;;;2.03;1.47;;;28.50;47.00;;;;;;5015018;28;20430;-82
2022/10/06 09:35:24;;;;;;;2.60;1.67;;;28.60;47.70;;;;;;5014946;28;20464;-81
2022/10/06 09:37:55;;;;;;;2.10;1.67;;;28.80;47.00;;;;;;5014743;28;20424;-80
2022/10/06 09:40:37;;;;;;;2.90;1.57;;;28.90;47.00;;;;;;5014927;28;20513;-81
2022/10/06 09:43:20;;;;;;;2.50;1.67;;;29.10;46.70;;;;;;5013784;28;20463;-81
2022/10/06 09:45:50;;;;;;;2.57;1.70;;;29.20;46.40;;;;;;5011926;28;20440;-81
2022/10/06 09:48:21;;;;;;;3.93;1.70;;;29.30;46.10;;;;;;5012175;28;20416;-81
2022/10/06 09:51:07;;;;;;;3.40;1.80;;;29.50;46.70;;;;;;5013960;28;20433;-81
2022/10/06 09:53:38;;;;;;;6.27;1.60;;;29.60;46.00;;;;;;5014826;28;20455;-80
2022/10/06 09:56:11;;;;;;;2.23;1.47;;;29.80;45.90;;;;;;5014002;28;20447;-81
2022/10/06 09:58:43;;;;;;;2.80;1.63;;;30.00;45.70;;;;;;5013427;28;20420;-80
2022/10/06 10:01:13;;;;;;;5.10;1.90;;;30.10;45.40;;;;;;5013746;28;20461;-80
2022/10/06 10:03:44;;;;;;;2.80;1.57;;;30.30;45.20;;;;;;5012114;28;20453;-81
2022/10/06 10:06:33;;;;;;;3.27;1.40;;;30.50;44.90;;;;;;5013979;28;20433;-81
2022/10/06 10:09:23;;;;;;;1.73;1.60;;;30.50;44.60;;;;;;5014239;28;20433;-81
2022/10/06 10:14:48;;;;;;;4.97;1.60;;;30.50;44.40;;;;;;5013408;28;20469;-81
2022/10/06 10:17:18;;;;;;;1.63;1.40;;;30.30;44.30;;;;;;5012920;28;20449;-81
2022/10/06 10:19:51;;;;;;;2.70;2.00;;;30.30;44.40;;;;;;5011401;28;20453;-81
2022/10/06 10:22:22;;;;;;;6.17;2.00;;;30.30;44.40;;;;;;5011781;28;20449;-81
2022/10/06 10:24:57;;;;;;;2.43;1.67;;;30.30;44.30;;;;;;5012755;28;20428;-81
2022/10/06 10:27:26;;;;;;;1.70;1.60;;;30.30;44.20;;;;;;5013818;28;20436;-81
2022/10/06 10:30:01;;;;;;;3.17;1.83;;;30.30;44.30;;;;;;5013720;28;20441;-81
2022/10/06 10:32:43;;;;;;;2.37;1.60;;;30.50;44.40;;;;;;5012635;28;20528;-81
2022/10/06 10:35:18;;;;;;;3.37;1.47;;;30.80;44.30;;;;;;5013261;28;20548;-80
2022/10/06 10:37:46;;;;;;;3.93;1.43;;;31.00;43.90;;;;;;5013125;28;20436;-81
2022/10/06 10:40:24;;;;;;;3.00;1.57;;;31.30;43.60;;;;;;5012887;28;20445;-79
2022/10/06 10:42:56;;;;;;;3.30;2.10;;;31.60;43.50;;;;;;5013483;28;20436;-81
2022/10/06 10:45:31;;;;;;;3.03;1.60;;;31.90;43.10;;;;;;5012785;28;20448;-79
2022/10/06 10:47:59;;;;;;;2.80;1.80;;;31.80;42.40;;;;;;5014405;28;20429;-81
2022/10/06 10:50:28;;;;;;;2.23;1.33;;;31.90;42.30;;;;;;5014331;28;20544;-81
2022/10/06 10:52:58;;;;;;;2.10;1.60;;;32.00;42.40;;;;;;5013941;28;20432;-81
2022/10/06 10:55:28;;;;;;;2.53;1.83;;;32.10;42.10;;;;;;5013741;28;20453;-81
2022/10/06 10:57:58;;;;;;;6.70;1.70;;;32.30;42.00;;;;;;5013999;28;20432;-81
2022/10/06 11:00:29;;;;;;;1.97;1.50;;;32.60;42.00;;;;;;5013873;28;20437;-81
2022/10/06 11:02:58;;;;;;;2.53;1.80;;;33.00;41.70;;;;;;5014003;28;20429;-81
2022/10/06 11:05:35;;;;;;;1.57;1.47;;;33.90;40.60;;;;;;5013632;28;20440;-82
2022/10/06 11:08:06;;;;;;;3.50;1.50;;;35.00;39.30;;;;;;5013754;28;20440;-82
2022/10/06 11:10:36;;;;;;;1.90;1.53;;;36.20;37.50;;;;;;5013625;28;20509;-82
2022/10/06 11:13:10;;;;;;;1.90;1.80;;;37.30;35.90;;;;;;5013344;28;20449;-81
2022/10/06 11:16:06;;;;;;;1.70;1.60;;;38.30;34.40;;;;;;5006447;28;20484;-79
2022/10/06 11:18:42;;;;;;;1.53;1.43;;;39.30;33.10;;;;;;4999984;28;20500;-82
2022/10/06 11:21:11;;;;;;;1.63;1.23;;;39.40;30.80;;;;;;5013235;28;20465;-82
2022/10/06 11:23:50;;;;;;;2.17;1.90;;;39.10;31.90;;;;;;5012765;28;20472;-81
2022/10/06 11:26:34;;;;;;;3.10;1.50;;;38.00;32.00;;;;;;5012997;28;20437;-80
2022/10/06 11:29:05;;;;;;;1.83;1.50;;;37.30;32.80;;;;;;5012782;28;20441;-82
2022/10/06 11:31:38;;;;;;;3.37;1.60;;;38.30;33.80;;;;;;5015763;28;20453;-82
2022/10/06 11:34:06;;;;;;;2.17;1.50;;;38.10;31.60;;;;;;5017894;28;20429;-81
2022/10/06 11:36:40;;;;;;;2.50;1.40;;;38.00;31.90;;;;;;5017065;28;20465;-81
2022/10/06 11:39:15;;;;;;;1.60;1.50;;;37.90;33.40;;;;;;5016352;28;20397;-79
2022/10/06 11:41:44;;;;;;;1.73;1.20;;;39.70;32.00;;;;;;5006524;28;21046;-80
2022/10/06 11:44:15;;;;;;;1.57;1.30;;;41.10;30.10;;;;;;5006324;28;20448;-79
2022/10/06 11:46:48;;;;;;;1.50;1.40;;;42.20;28.90;;;;;;5007406;28;20440;-80
2022/10/06 11:49:48;;;;;;;1.70;1.07;;;43.20;28.00;;;;;;5006807;28;20472;-79
2022/10/06 11:52:36;;;;;;;0.90;0.90;;;44.10;27.20;;;;;;5006419;28;20461;-80
2022/10/06 11:55:08;;;;;;;1.20;1.20;;;44.60;26.60;;;;;;5006263;28;20432;-78
2022/10/06 11:57:39;;;;;;;1.43;1.03;;;45.10;26.00;;;;;;5006558;28;20444;-80
2022/10/06 12:00:41;;;;;;;1.15;1.10;;;45.50;26.00;;;;;;5005987;28;20448;-79
2022/10/06 12:03:54;;;;;;;1.00;1.00;;;45.80;25.40;;;;;;5002645;28;20448;-80
2022/10/06 12:07:05;;;;;;;1.00;1.00;;;45.50;25.20;;;;;;5010823;28;20199;-82
2022/10/06 12:09:53;;;;;;;1.73;1.60;;;43.90;27.00;;;;;;5006159;28;20444;-78
2022/10/06 12:12:54;;;;;;;2.37;1.50;;;42.50;27.40;;;;;;5004173;28;20464;-78
2022/10/06 12:16:01;;;;;;;1.27;1.27;;;41.80;28.50;;;;;;5015738;28;20468;-80
2022/10/06 12:18:53;;;;;;;1.37;1.27;;;41.10;27.90;;;;;;5013682;28;20437;-80
2022/10/06 12:21:38;;;;;;;1.27;1.20;;;40.40;28.90;;;;;;5013371;28;20452;-81
2022/10/06 12:24:21;;;;;;;1.20;1.17;;;41.80;28.30;;;;;;5014830;28;20424;-80
2022/10/06 12:26:54;;;;;;;1.17;1.17;;;42.60;27.60;;;;;;5012551;28;20429;-81
2022/10/06 12:29:33;;;;;;;3.90;1.27;;;43.00;27.20;;;;;;5013566;28;20447;-81
2022/10/06 12:32:08;;;;;;;1.30;1.30;;;43.70;26.80;;;;;;5012866;28;20827;-81
2022/10/06 12:34:55;;;;;;;1.13;1.13;;;44.40;26.10;;;;;;5013736;28;20428;-80
2022/10/06 12:37:43;;;;;;;1.03;1.03;;;45.10;25.60;;;;;;5014511;28;20532;-79
2022/10/06 12:40:50;;;;;;;1.20;1.20;;;45.50;25.20;;;;;;5014738;28;20420;-81
2022/10/06 12:43:33;;;;;;;1.17;1.17;;;45.90;24.80;;;;;;5011521;28;20527;-81
2022/10/06 12:46:03;;;;;;;1.10;1.10;;;46.20;24.60;;;;;;5013748;28;20205;-81
2022/10/06 12:48:36;;;;;;;1.08;1.00;;;46.30;24.30;;;;;;5013488;28;20205;-80
2022/10/06 12:51:09;;;;;;;1.05;1.05;;;46.50;24.20;;;;;;5013887;28;20460;-81
2022/10/06 12:53:38;;;;;;;1.02;1.02;;;46.60;24.10;;;;;;5012671;28;20218;-81
2022/10/06 12:56:10;;;;;;;1.23;1.23;;;46.70;24.10;;;;;;5013194;28;20227;-80
2022/10/06 12:58:41;;;;;;;1.10;1.10;;;45.70;24.00;;;;;;5012233;28;20449;-81
2022/10/06 13:01:10;;;;;;;1.17;1.17;;;46.00;24.40;;;;;;5012083;28;20441;-80
2022/10/06 13:03:38;;;;;;;3.80;1.03;;;45.50;24.70;;;;;;5012177;28;20495;-81
2022/10/06 13:06:07;;;;;;;1.30;1.20;;;45.90;24.60;;;;;;5011373;28;20509;-82
2022/10/06 13:08:36;;;;;;;2.70;1.50;;;45.90;22.70;;;;;;5005186;28;20461;-81
2022/10/06 13:11:15;;;;;;;4.73;1.70;;;43.50;23.70;;;;;;5005345;28;20472;-81
2022/10/06 13:13:48;;;;;;;6.00;1.80;;;41.70;25.20;;;;;;5005258;28;20445;-81
2022/10/06 13:16:18;;;;;;;2.90;1.50;;;41.20;26.00;;;;;;5004316;28;20472;-81
2022/10/06 13:18:47;;;;;;;6.60;1.73;;;40.80;26.50;;;;;;5005908;28;20511;-81
2022/10/06 13:21:15;;;;;;;2.03;1.80;;;40.60;26.80;;;;;;5006362;28;20472;-81
2022/10/06 13:23:42;;;;;;;2.53;1.73;;;40.10;27.00;;;;;;5006227;28;20450;-81